Time;durP1;ratioP1;P1;durP2;ratioP2;P2;SDS_P1;SDS_P2;PMS_P1;PMS_P2;Temp;Humidity;BMP_temperature;BMP_pressure;BME280_temperature;BME280_humidity;BME280_pressure;Samples;Min_cycle;Max_cycle;Signal;HPM_P1;HPM_P2
2021/08/27 00:00:53;;;;;;;5.23;1.57;;;;;;;12.73;100.00;-3582.72;5053480;28;20182;-66
2021/08/27 00:03:18;;;;;;;6.83;1.50;;;;;;;12.66;100.00;4894.44;5059405;28;20033;-66
2021/08/27 00:05:44;;;;;;;6.33;1.60;;;;;;;12.59;100.00;13391.66;5055970;28;20053;-66
2021/08/27 00:08:09;;;;;;;5.10;1.40;;;;;;;12.53;100.00;18630.13;5055542;28;20607;-66
2021/08/27 00:10:35;;;;;;;5.03;1.47;;;;;;;12.46;100.00;27159.06;5059369;28;20024;-66
2021/08/27 00:13:00;;;;;;;6.53;1.30;;;;;;;12.38;100.00;33732.16;5054874;28;20129;-66
2021/08/27 00:15:26;;;;;;;5.10;1.60;;;;;;;12.29;100.00;43284.66;5056699;28;20021;-66
2021/08/27 00:17:51;;;;;;;8.97;2.00;;;;;;;12.28;100.00;49891.88;5059678;28;20227;-66
2021/08/27 00:20:17;;;;;;;4.03;1.53;;;;;;;12.20;100.00;55841.84;5059578;28;20550;-66
2021/08/27 00:22:43;;;;;;;6.93;1.80;;;;;;;12.16;100.00;60478.16;5050308;28;20436;-66
2021/08/27 00:25:09;;;;;;;8.27;1.63;;;;;;;12.12;100.00;65452.28;5057217;28;20031;-66
2021/08/27 00:27:35;;;;;;;5.00;1.47;;;;;;;12.13;100.00;65453.44;5056476;28;20529;-66
2021/08/27 00:30:01;;;;;;;6.07;1.57;;;;;;;12.23;100.00;67458.06;5057112;28;20047;-66
2021/08/27 00:32:28;;;;;;;5.00;1.93;;;;;;;12.26;100.00;67794.03;5057525;28;20101;-66
2021/08/27 00:34:54;;;;;;;8.63;1.73;;;;;;;12.29;100.00;66800.94;5057367;28;20024;-66
2021/08/27 00:37:20;;;;;;;6.83;1.40;;;;;;;12.29;100.00;66800.94;5056240;28;20115;-66
2021/08/27 00:39:45;;;;;;;4.77;1.90;;;;;;;12.22;100.00;64467.31;5053331;28;20459;-66
2021/08/27 00:42:11;;;;;;;9.40;1.90;;;;;;;12.21;100.00;65794.78;5057885;28;20048;-66
2021/08/27 00:44:37;;;;;;;6.63;1.70;;;;;;;12.20;100.00;66790.41;5057116;28;20051;-66
2021/08/27 00:47:02;;;;;;;6.67;1.67;;;;;;;12.19;100.00;68450.56;5056669;28;20040;-66
2021/08/27 00:49:29;;;;;;;6.57;1.80;;;;;;;12.20;100.00;71445.91;5057503;28;20024;-66
2021/08/27 00:51:55;;;;;;;3.93;1.53;;;;;;;12.20;100.00;71778.69;5058250;28;20028;-66
2021/08/27 00:54:21;;;;;;;4.27;1.87;;;;;;;12.25;100.00;74447.94;5056909;28;20397;-66
2021/08/27 00:56:50;;;;;;;5.43;1.93;;;;;;;12.28;100.00;75118.72;5057829;28;20532;-66
2021/08/27 00:59:19;;;;;;;4.67;1.67;;;;;;;12.32;100.00;72791.81;5056907;28;20029;-66
2021/08/27 01:01:45;;;;;;;5.17;1.70;;;;;;;12.29;100.00;71789.97;5052872;28;20767;-66
2021/08/27 01:04:11;;;;;;;4.53;1.53;;;;;;;12.26;100.00;71120.00;5051387;28;20024;-66
2021/08/27 01:06:52;;;;;;;7.17;1.87;;;;;;;12.24;100.00;73448.22;5053139;28;20017;-66
2021/08/27 01:09:28;;;;;;;6.20;1.67;;;;;;;12.16;100.00;74436.88;5050684;28;20032;-66
2021/08/27 01:12:02;;;;;;;6.70;2.10;;;;;;;12.17;100.00;77770.16;5052999;28;20214;-66
2021/08/27 01:14:39;;;;;;;3.90;1.70;;;;;;;12.16;100.00;80103.09;5055802;28;20036;-66
2021/08/27 01:17:12;;;;;;;4.60;1.80;;;;;;;12.18;100.00;82775.63;5054722;28;20155;-66
2021/08/27 01:20:01;;;;;;;7.20;1.80;;;;;;;12.23;100.00;84452.63;5058238;28;20057;-66
2021/08/27 01:23:11;;;;;;;5.63;1.87;;;;;;;12.30;100.00;86467.97;5057135;28;20024;-66
2021/08/27 01:25:39;;;;;;;5.33;1.80;;;;;;;12.41;100.00;84143.47;5048762;28;20037;-66
2021/08/27 01:28:08;;;;;;;7.13;2.27;;;;;;;12.47;100.00;82816.66;5057361;28;20032;-66
2021/08/27 01:30:57;;;;;;;6.93;2.13;;;;;;;12.47;100.00;80813.16;5056625;28;20542;-66
2021/08/27 01:33:24;;;;;;;5.20;1.50;;;;;;;12.44;100.00;79473.31;5056888;28;20059;-66
2021/08/27 01:35:56;;;;;;;4.00;1.40;;;;;;;12.41;100.00;80470.97;5053825;28;20040;-66
2021/08/27 01:38:27;;;;;;;6.57;1.90;;;;;;;12.39;100.00;79800.75;5051222;28;20032;-66
2021/08/27 01:40:54;;;;;;;13.07;2.40;;;;;;;12.33;100.00;81127.94;5056328;28;20044;-66
2021/08/27 01:43:22;;;;;;;4.87;1.70;;;;;;;12.35;100.00;81129.34;5057113;28;20038;-66
2021/08/27 01:45:49;;;;;;;4.97;1.80;;;;;;;12.31;100.00;83127.56;5056446;28;20082;-66
2021/08/27 01:48:15;;;;;;;6.50;1.53;;;;;;;12.36;100.00;86141.19;5050554;28;20035;-66
2021/08/27 01:50:43;;;;;;;6.40;2.20;;;;;;;12.41;100.00;87486.88;5056847;28;20116;-66
2021/08/27 01:53:09;;;;;;;7.57;1.83;;;;;;;12.49;100.00;87498.28;5057883;28;20100;-66
2021/08/27 01:55:36;;;;;;;5.87;1.53;;;;;;;12.56;100.00;86506.25;5060152;28;20033;-66
2021/08/27 01:58:04;;;;;;;7.43;1.90;;;;;;;12.64;100.00;85179.94;5060011;28;20025;-66
2021/08/27 02:00:30;;;;;;;5.90;1.60;;;;;;;12.66;100.00;82175.13;5060033;28;20289;-66
2021/08/27 02:02:58;;;;;;;7.10;1.90;;;;;;;12.64;100.00;80167.94;5059669;28;20309;-66
2021/08/27 02:05:25;;;;;;;4.63;1.37;;;;;;;12.66;100.00;81172.41;5060190;28;20494;-66
2021/08/27 02:07:52;;;;;;;4.80;1.43;;;;;;;12.65;100.00;82507.75;5061233;28;20055;-66
2021/08/27 02:10:18;;;;;;;6.27;1.60;;;;;;;12.67;100.00;83847.25;5060888;28;20028;-66
2021/08/27 02:12:44;;;;;;;4.50;1.70;;;;;;;12.69;100.00;86190.56;5060550;28;20466;-66
2021/08/27 02:15:10;;;;;;;4.63;1.63;;;;;;;12.72;100.00;86529.56;5060212;28;20024;-66
2021/08/27 02:17:35;;;;;;;6.23;1.67;;;;;;;12.72;100.00;87533.22;5059855;28;20023;-66
2021/08/27 02:20:01;;;;;;;3.30;1.37;;;;;;;12.72;100.00;86864.06;5059591;28;20107;-66
2021/08/27 02:22:30;;;;;;;4.43;1.80;;;;;;;12.71;100.00;88535.63;5059940;28;20421;-66
2021/08/27 02:25:10;;;;;;;4.27;1.77;;;;;;;12.78;100.00;90554.59;5057219;28;20107;-66
2021/08/27 02:27:39;;;;;;;4.90;1.50;;;;;;;12.77;100.00;89214.38;5059801;28;20051;-66
2021/08/27 02:30:06;;;;;;;5.70;1.30;;;;;;;12.76;100.00;89882.47;5059362;28;20551;-66
2021/08/27 02:32:33;;;;;;;10.93;1.90;;;;;;;12.76;100.00;91556.34;5055737;28;20111;-66
2021/08/27 02:35:02;;;;;;;4.97;1.50;;;;;;;12.76;100.00;91221.34;5061285;28;20035;-66
2021/08/27 02:37:31;;;;;;;7.87;1.60;;;;;;;12.78;100.00;91224.50;5058756;28;20017;-66
2021/08/27 02:39:57;;;;;;;4.57;1.53;;;;;;;12.80;100.00;92903.06;5059383;28;20032;-66
2021/08/27 02:42:27;;;;;;;5.93;1.60;;;;;;;12.82;100.00;90560.84;5058274;28;20267;-66
2021/08/27 02:44:53;;;;;;;4.30;1.60;;;;;;;12.84;100.00;89560.06;5056373;28;20171;-66
2021/08/27 02:47:19;;;;;;;2.77;1.23;;;;;;;12.88;100.00;88895.78;5058250;28;20339;-66
2021/08/27 02:49:44;;;;;;;5.57;1.60;;;;;;;12.88;100.00;85883.72;5057774;28;20032;-66
2021/08/27 02:52:38;;;;;;;5.87;1.40;;;;;;;12.90;100.00;81875.25;5055179;28;20108;-66
2021/08/27 02:55:18;;;;;;;6.97;2.00;;;;;;;12.90;100.00;82543.63;5054932;28;20044;-66
2021/08/27 02:58:01;;;;;;;6.83;1.47;;;;;;;12.88;100.00;80870.13;5060135;28;20048;-66
2021/08/27 03:00:32;;;;;;;4.57;1.47;;;;;;;12.88;100.00;81204.19;5059574;28;20208;-66
2021/08/27 03:02:58;;;;;;;5.53;1.50;;;;;;;12.89;100.00;82542.19;5058363;28;20112;-66
2021/08/27 03:05:27;;;;;;;5.73;1.60;;;;;;;12.89;100.00;81873.13;5058241;28;20103;-66
2021/08/27 03:08:02;;;;;;;5.73;2.17;;;;;;;12.93;100.00;81878.09;5055638;28;20044;-66
2021/08/27 03:10:39;;;;;;;3.77;1.30;;;;;;;12.95;100.00;81213.34;5058399;28;20016;-66
2021/08/27 03:13:09;;;;;;;4.10;1.47;;;;;;;12.96;100.00;77874.50;5058694;28;20024;-66
2021/08/27 03:15:47;;;;;;;4.10;1.53;;;;;;;12.94;100.00;77204.31;5058190;28;20176;-66
2021/08/27 03:18:18;;;;;;;6.27;1.33;;;;;;;13.00;100.00;79549.44;5056889;28;20024;-66
2021/08/27 03:21:10;;;;;;;3.50;1.13;;;;;;;12.97;100.00;77209.03;5059101;28;20032;-66
2021/08/27 03:23:38;;;;;;;5.15;1.67;;;;;;;12.98;100.00;76542.28;5056216;28;20036;-66
2021/08/27 03:26:07;;;;;;;6.10;1.47;;;;;;;13.00;100.00;77879.94;5058888;28;20512;-66
2021/08/27 03:28:41;;;;;;;6.83;1.70;;;;;;;13.01;100.00;78215.13;5058785;28;20054;-66
2021/08/27 03:31:08;;;;;;;4.80;1.40;;;;;;;13.02;100.00;78216.50;5059263;28;20024;-66
2021/08/27 03:33:35;;;;;;;5.30;1.60;;;;;;;13.07;100.00;81898.72;5058409;28;20121;-66
2021/08/27 03:36:01;;;;;;;3.77;1.53;;;;;;;13.08;100.00;80562.69;5055762;28;20021;-66
2021/08/27 03:38:33;;;;;;;3.90;1.57;;;;;;;13.13;100.00;79901.47;5058437;28;20264;-66
2021/08/27 03:40:59;;;;;;;3.92;1.50;;;;;;;13.10;100.00;75224.22;5058357;28;20036;-66
2021/08/27 03:43:25;;;;;;;7.40;1.60;;;;;;;13.12;100.00;71558.31;5057340;28;20036;-66
2021/08/27 03:45:53;;;;;;;6.43;1.53;;;;;;;13.12;100.00;69226.25;5059131;28;20028;-66
2021/08/27 03:48:20;;;;;;;7.10;1.63;;;;;;;13.16;100.00;68232.03;5057014;28;20043;-66
2021/08/27 03:50:48;;;;;;;5.90;1.50;;;;;;;13.15;100.00;64902.88;5058186;28;20258;-66
2021/08/27 03:53:14;;;;;;;8.77;1.50;;;;;;;13.14;100.00;63571.50;5057846;28;20028;-66
2021/08/27 03:55:40;;;;;;;5.27;1.63;;;;;;;13.05;100.00;66555.38;5058621;28;20036;-67
2021/08/27 03:58:08;;;;;;;5.23;1.40;;;;;;;12.90;100.00;70865.22;5057647;28;20119;-67
2021/08/27 04:00:34;;;;;;;3.80;1.20;;;;;;;12.71;100.00;75840.59;5053656;28;20036;-67
2021/08/27 04:03:01;;;;;;;4.20;1.50;;;;;;;12.64;100.00;82172.28;5057425;28;20477;-67
2021/08/27 04:05:26;;;;;;;6.03;1.77;;;;;;;12.62;100.00;86514.53;5058366;28;20520;-67
2021/08/27 04:07:52;;;;;;;7.40;1.40;;;;;;;12.64;100.00;91203.16;5057053;28;20032;-67
2021/08/27 04:10:19;;;;;;;3.73;1.40;;;;;;;12.67;100.00;91207.09;5057824;28;20582;-67
2021/08/27 04:12:45;;;;;;;3.93;1.30;;;;;;;12.66;100.00;89866.88;5056919;28;20028;-67
2021/08/27 04:15:13;;;;;;;9.30;2.37;;;;;;;12.64;100.00;89862.97;5057948;28;20028;-67
2021/08/27 04:17:40;;;;;;;6.63;1.57;;;;;;;12.64;100.00;89529.00;5055587;28;20032;-67
2021/08/27 04:20:08;;;;;;;8.60;1.50;;;;;;;12.68;100.00;88865.72;5055423;28;20553;-67
2021/08/27 04:22:33;;;;;;;6.77;1.50;;;;;;;12.67;100.00;91207.91;5058161;28;20279;-67
2021/08/27 04:24:59;;;;;;;4.90;1.47;;;;;;;12.67;100.00;91207.91;5057827;28;20028;-67
2021/08/27 04:27:25;;;;;;;5.43;1.50;;;;;;;12.56;100.00;90520.81;5058484;28;20343;-67
2021/08/27 04:29:50;;;;;;;6.43;1.90;;;;;;;12.49;100.00;94529.38;5057536;28;20055;-67
2021/08/27 04:32:17;;;;;;;6.43;1.47;;;;;;;12.52;100.00;97552.13;5057119;28;20031;-67
2021/08/27 04:34:43;;;;;;;3.60;1.43;;;;;;;12.51;100.00;97550.44;5050396;28;20385;-67
2021/08/27 04:37:08;;;;;;;6.47;1.40;;;;;;;12.63;100.00;96564.25;5057453;28;20032;-67
2021/08/27 04:39:34;;;;;;;4.83;1.23;;;;;;;12.71;100.00;92889.38;5057256;28;20039;-67
2021/08/27 04:42:01;;;;;;;3.47;1.70;;;;;;;12.79;100.00;86874.63;5052942;28;20036;-67
2021/08/27 04:44:27;;;;;;;7.30;1.60;;;;;;;12.86;100.00;82537.88;5053413;28;20016;-67
2021/08/27 04:46:52;;;;;;;6.17;1.43;;;;;;;12.96;100.00;79543.88;5057468;28;20254;-67
2021/08/27 04:49:18;;;;;;;4.87;1.60;;;;;;;13.00;100.00;72543.69;5057266;28;20189;-67
2021/08/27 04:51:43;;;;;;;4.47;1.30;;;;;;;13.07;100.00;69886.25;5056244;28;20032;-67
2021/08/27 04:54:09;;;;;;;6.10;1.33;;;;;;;13.16;100.00;65569.94;5057038;28;20319;-67
2021/08/27 04:56:34;;;;;;;9.03;2.43;;;;;;;13.21;100.00;62248.88;5048053;28;20668;-67
2021/08/27 04:59:00;;;;;;;3.77;1.60;;;;;;;13.23;100.00;60257.69;5056884;28;20036;-67
2021/08/27 05:01:29;;;;;;;6.17;1.23;;;;;;;13.31;100.00;58937.34;5057327;28;20485;-67
2021/08/27 05:03:54;;;;;;;6.10;1.57;;;;;;;13.37;100.00;56619.16;5051416;28;20472;-67
2021/08/27 05:06:20;;;;;;;6.43;1.40;;;;;;;13.42;100.00;54632.41;5056983;28;20063;-67
2021/08/27 05:08:45;;;;;;;5.00;1.30;;;;;;;13.44;100.00;51981.56;5056598;28;20032;-67
2021/08/27 05:11:11;;;;;;;6.50;1.40;;;;;;;13.40;100.00;49657.69;5057038;28;20372;-67
2021/08/27 05:13:36;;;;;;;4.43;1.40;;;;;;;13.39;100.00;50319.88;5052209;28;20040;-67
2021/08/27 05:16:02;;;;;;;6.20;2.27;;;;;;;13.33;100.00;51640.00;5057219;28;20024;-67
2021/08/27 05:18:29;;;;;;;4.03;1.33;;;;;;;13.32;100.00;55618.06;5056532;28;20159;-67
2021/08/27 05:20:55;;;;;;;4.47;1.37;;;;;;;13.36;100.00;59606.94;5055802;28;20054;-67
2021/08/27 05:23:21;;;;;;;12.60;1.80;;;;;;;13.47;100.00;60282.59;5057313;28;20523;-67
2021/08/27 05:25:46;;;;;;;3.40;1.37;;;;;;;13.49;100.00;55302.88;5056855;28;20107;-67
2021/08/27 05:28:12;;;;;;;5.80;1.30;;;;;;;13.47;100.00;57957.41;5058734;28;20466;-67
2021/08/27 05:30:37;;;;;;;3.40;1.37;;;;;;;13.56;100.00;44374.13;5059452;28;20111;-67
2021/08/27 05:33:03;;;;;;;4.30;1.50;;;;;;;13.57;100.00;36113.50;5060796;28;20059;-67
2021/08/27 05:35:28;;;;;;;4.10;1.20;;;;;;;13.62;100.00;41401.94;5058096;28;20017;-67
2021/08/27 05:37:54;;;;;;;2.93;1.20;;;;;;;13.64;100.00;34468.13;5058706;28;20036;-67
2021/08/27 05:40:19;;;;;;;4.53;1.30;;;;;;;13.70;100.00;38103.59;5056908;28;20025;-67
2021/08/27 05:42:45;;;;;;;4.73;1.50;;;;;;;13.75;100.00;33485.28;5061362;28;20021;-67
2021/08/27 05:45:12;;;;;;;6.37;1.27;;;;;;;13.82;100.00;29862.50;5061266;28;20039;-67
2021/08/27 05:47:38;;;;;;;5.37;1.30;;;;;;;13.78;100.00;24920.97;5060902;28;20024;-67
2021/08/27 05:50:05;;;;;;;6.47;1.30;;;;;;;13.86;100.00;27887.56;5060024;28;20386;-67
2021/08/27 05:52:31;;;;;;;7.13;1.40;;;;;;;13.91;100.00;26573.06;5057693;28;20590;-67
2021/08/27 05:54:56;;;;;;;4.53;1.50;;;;;;;14.02;100.00;16056.22;5055800;28;20139;-67
2021/08/27 05:57:22;;;;;;;3.67;1.10;;;;;;;14.14;100.00;13106.19;5060474;28;20027;-67
2021/08/27 05:59:47;;;;;;;4.50;1.37;;;;;;;14.24;100.00;6552.97;5059680;28;20244;-67
2021/08/27 06:02:13;;;;;;;5.30;1.30;;;;;;;14.25;100.00;14421.81;5059676;28;20485;-67
2021/08/27 06:04:38;;;;;;;4.43;1.20;;;;;;;14.22;100.00;28894.88;5059515;28;20517;-67
2021/08/27 06:07:04;;;;;;;7.57;1.77;;;;;;;14.27;100.00;34507.13;5059737;28;20052;-67
2021/08/27 06:09:29;;;;;;;3.10;1.30;;;;;;;14.43;100.00;29235.94;5059529;28;20137;-67
2021/08/27 06:11:55;;;;;;;5.33;1.60;;;;;;;14.48;100.00;8523.13;5059542;28;20043;-67
2021/08/27 06:14:20;;;;;;;5.30;1.43;;;;;;;14.36;100.00;10.88;5059304;28;20048;-67
2021/08/27 06:16:46;;;;;;;5.90;1.20;;;;;;;14.27;100.00;6881.03;5059576;28;20028;-67
2021/08/27 06:19:11;;;;;;;5.53;1.30;;;;;;;14.32;100.00;12454.72;5059577;28;20090;-67
2021/08/27 06:21:39;;;;;;;3.33;1.20;;;;;;;14.51;100.00;10491.13;5059982;28;20389;-67
2021/08/27 06:24:05;;;;;;;6.87;1.50;;;;;;;14.56;100.00;-12394.94;5060710;28;20172;-67
2021/08/27 06:26:31;;;;;;;7.37;2.13;;;;;;;14.62;100.00;-5965.59;5060546;28;20260;-67
2021/08/27 06:28:58;;;;;;;5.90;1.50;;;;;;;14.61;100.00;-6643.81;5060681;28;20051;-67
2021/08/27 06:31:24;;;;;;;4.80;1.20;;;;;;;14.64;100.00;339.53;5056794;28;20734;-67
2021/08/27 06:33:50;;;;;;;8.77;1.97;;;;;;;14.80;100.00;-7149.69;5060341;28;20146;-67
2021/08/27 06:36:15;;;;;;;5.60;1.30;;;;;;;14.92;100.00;-17310.84;5056400;28;20136;-67
2021/08/27 06:38:41;;;;;;;5.27;1.37;;;;;;;15.06;100.00;-19083.50;5058646;28;20031;-67
2021/08/27 06:41:08;;;;;;;4.53;1.30;;;;;;;15.25;100.00;-19562.97;5058959;28;20473;-67
2021/08/27 06:43:37;;;;;;;5.60;1.73;;;;;;;15.47;100.00;-19568.72;5060147;28;20385;-67
2021/08/27 06:46:07;;;;;;;5.23;1.20;;;;;;;15.43;100.00;-19567.56;5060161;28;20111;-67
2021/08/27 06:48:34;;;;;;;8.27;1.40;;;;;;;15.37;100.00;-19565.97;5060423;28;20304;-67
2021/08/27 06:50:59;;;;;;;14.00;1.50;;;;;;;15.30;100.00;-19564.16;5059234;28;20291;-67
2021/08/27 06:53:25;;;;;;;5.80;1.60;;;;;;;15.44;100.00;-19567.81;5060375;28;20535;-67
2021/08/27 06:55:50;;;;;;;5.67;1.20;;;;;;;15.64;100.00;-19573.06;5061607;28;20083;-67
2021/08/27 06:58:17;;;;;;;4.80;1.30;;;;;;;15.87;100.00;-19578.94;5059500;28;20514;-67
2021/08/27 07:00:42;;;;;;;5.37;1.40;;;;;;;15.80;100.00;-19577.22;5059831;28;20066;-67
2021/08/27 07:03:08;;;;;;;4.53;1.20;;;;;;;15.87;100.00;-19578.94;5059868;28;20020;-68
2021/08/27 07:05:33;;;;;;;5.97;1.27;;;;;;;16.04;100.00;-19583.38;5060006;28;20221;-67
2021/08/27 07:07:59;;;;;;;4.63;1.33;;;;;;;16.17;100.00;-19586.66;5059885;28;20039;-67
2021/08/27 07:10:26;;;;;;;10.43;1.50;;;;;;;16.12;100.00;-19585.34;5059427;28;20097;-68
2021/08/27 07:12:52;;;;;;;7.43;1.30;;;;;;;16.22;100.00;-19587.94;5059982;28;20040;-68
2021/08/27 07:15:19;;;;;;;5.50;1.40;;;;;;;16.38;100.00;-19592.13;5053681;28;20038;-67
2021/08/27 07:17:44;;;;;;;5.40;1.40;;;;;;;16.29;100.00;-19589.66;5059785;28;20024;-67
2021/08/27 07:20:11;;;;;;;6.37;1.30;;;;;;;16.36;100.00;-19591.47;5058984;28;20070;-67
2021/08/27 07:22:37;;;;;;;5.23;1.63;;;;;;;16.65;100.00;-19599.06;5059439;28;20628;-67
2021/08/27 07:25:04;;;;;;;5.87;1.30;;;;;;;16.81;100.00;-19603.09;5059159;28;20677;-67
2021/08/27 07:27:29;;;;;;;8.13;1.40;;;;;;;17.17;100.00;-19612.38;5058230;28;20143;-67
2021/08/27 07:29:55;;;;;;;5.17;1.13;;;;;;;17.46;100.00;-19619.81;5058991;28;20127;-67
2021/08/27 07:32:20;;;;;;;7.70;1.13;;;;;;;17.33;100.00;-19616.28;5059343;28;20024;-67
2021/08/27 07:34:46;;;;;;;4.87;1.00;;;;;;;17.18;100.00;-19612.63;5058939;28;20113;-67
2021/08/27 07:37:12;;;;;;;4.27;1.40;;;;;;;16.92;100.00;-19605.97;5059263;28;20050;-67
2021/08/27 07:39:38;;;;;;;6.93;1.27;;;;;;;16.89;100.00;-19605.19;5059115;28;20432;-67
2021/08/27 07:42:05;;;;;;;5.83;1.00;;;;;;;16.96;100.00;-19607.03;5059194;28;20024;-67
2021/08/27 07:44:31;;;;;;;3.77;1.30;;;;;;;17.35;100.00;-19616.94;5058686;28;20025;-67
2021/08/27 07:46:56;;;;;;;6.50;1.10;;;;;;;17.49;100.00;-19620.47;5059061;28;20391;-67
2021/08/27 07:49:22;;;;;;;3.43;1.00;;;;;;;17.61;100.00;-19623.47;5059250;28;20567;-67
2021/08/27 07:51:49;;;;;;;4.88;1.38;;;;;;;17.58;100.00;-19622.94;5058131;28;20095;-68
2021/08/27 07:54:15;;;;;;;4.15;0.73;;;;;;;18.50;100.00;-19646.41;5058584;28;20039;-69
2021/08/27 07:56:41;;;;;;;3.97;0.90;;;;;;;19.63;100.00;-19675.34;5058617;28;20560;-69
2021/08/27 07:59:07;;;;;;;9.20;1.02;;;;;;;19.52;100.00;-19672.47;5058101;28;20029;-69
2021/08/27 08:01:32;;;;;;;8.30;1.50;;;;;;;19.06;100.00;-19660.75;5056149;28;20029;-68
2021/08/27 08:04:00;;;;;;;3.88;0.82;;;;;;;19.39;100.00;-19669.09;5058700;28;20579;-68
2021/08/27 08:06:26;;;;;;;5.75;0.90;;;;;;;19.39;100.00;-19669.09;5056135;28;20032;-68
2021/08/27 08:08:51;;;;;;;4.32;0.88;;;;;;;18.86;100.00;-19655.53;5058612;28;20358;-68
2021/08/27 08:11:17;;;;;;;4.50;1.00;;;;;;;17.99;100.00;-19633.25;5058768;28;20021;-67
2021/08/27 08:13:42;;;;;;;2.15;0.77;;;;;;;17.81;100.00;-19628.69;5053078;28;20222;-67
2021/08/27 08:16:08;;;;;;;3.65;1.10;;;;;;;17.28;100.00;-19615.13;5057390;28;20202;-68
2021/08/27 08:18:35;;;;;;;2.60;0.82;;;;;;;17.14;100.00;-19611.47;5058379;28;20030;-67
2021/08/27 08:21:01;;;;;;;2.55;0.85;;;;;;;16.94;100.00;-19606.50;5059954;28;20024;-67
2021/08/27 08:23:27;;;;;;;3.97;1.10;;;;;;;16.82;100.00;-19603.38;5059686;28;20532;-67
2021/08/27 08:25:53;;;;;;;2.83;1.10;;;;;;;16.65;100.00;-19598.94;5059783;28;20021;-67
2021/08/27 08:28:19;;;;;;;2.70;0.90;;;;;;;16.65;100.00;-19598.94;5059608;28;20507;-67
2021/08/27 08:30:44;;;;;;;3.57;0.90;;;;;;;16.74;100.00;-19601.16;5059686;28;20107;-67
2021/08/27 08:33:10;;;;;;;2.70;0.80;;;;;;;16.92;100.00;-19605.84;5059535;28;20252;-66
2021/08/27 08:35:35;;;;;;;7.17;1.30;;;;;;;16.86;100.00;-19604.41;5059345;28;20115;-67
2021/08/27 08:38:01;;;;;;;4.97;1.00;;;;;;;16.64;100.00;-19598.78;5059852;28;20142;-67
2021/08/27 08:40:26;;;;;;;2.80;0.97;;;;;;;16.49;100.00;-19594.75;5059360;28;20454;-67
2021/08/27 08:42:52;;;;;;;9.33;1.27;;;;;;;16.07;100.00;-19584.03;5059241;28;20036;-66
2021/08/27 08:45:17;;;;;;;4.57;1.00;;;;;;;15.63;100.00;-964.28;5058943;28;20677;-66
2021/08/27 08:47:46;;;;;;;2.97;1.20;;;;;;;15.52;100.00;10185.56;5059327;28;20082;-66
2021/08/27 08:50:12;;;;;;;2.50;1.40;;;;;;;15.51;100.00;8543.25;5059246;28;20343;-66
2021/08/27 08:52:41;;;;;;;3.40;1.30;;;;;;;15.70;100.00;3437.09;5059321;28;20029;-66
2021/08/27 08:55:07;;;;;;;2.63;1.00;;;;;;;16.04;100.00;-18802.38;5058657;28;20082;-67
2021/08/27 08:57:33;;;;;;;7.20;1.30;;;;;;;16.84;100.00;-19603.91;5059285;28;20036;-67
2021/08/27 09:00:02;;;;;;;5.07;1.10;;;;;;;19.10;100.00;-19661.66;5059301;28;20467;-69
2021/08/27 09:02:31;;;;;;;5.30;1.40;;;;;;;19.43;100.00;-19670.13;5060951;28;20266;-69
2021/08/27 09:04:56;;;;;;;3.17;0.90;;;;;;;19.82;100.00;-19680.28;5063444;28;20033;-69
2021/08/27 09:07:22;;;;;;;6.03;1.50;;;;;;;19.27;100.00;-19666.09;5055676;28;20043;-68
2021/08/27 09:09:48;;;;;;;4.05;0.88;;;;;;;18.46;100.00;-19645.38;5062837;28;20291;-67
2021/08/27 09:12:27;;;;;;;2.13;0.85;;;;;;;18.25;100.00;-19639.91;5061772;28;20194;-67
2021/08/27 09:15:01;;;;;;;2.65;0.80;;;;;;;17.73;100.00;-19626.59;5060560;28;20037;-67
2021/08/27 09:17:35;;;;;;;6.63;1.23;;;;;;;17.57;100.00;-19622.69;5053052;28;20550;-67
2021/08/27 09:20:04;;;;;;;2.83;0.90;;;;;;;17.42;100.00;-19618.78;5054748;28;20535;-66
2021/08/27 09:22:59;;;;;;;6.40;1.25;;;;;;;16.90;100.00;-19605.47;5061442;28;20062;-66
2021/08/27 09:25:33;;;;;;;4.70;1.07;;;;;;;16.48;100.00;-19594.47;5058867;28;20029;-67
2021/08/27 09:28:13;;;;;;;4.70;1.07;;;;;;;16.23;100.00;-19588.22;5047990;28;20037;-66
2021/08/27 09:30:55;;;;;;;5.40;1.43;;;;;;;16.31;100.00;-19590.31;5059658;28;20261;-66
2021/08/27 09:33:36;;;;;;;4.07;1.03;;;;;;;17.06;100.00;-19609.38;5061851;28;20339;-67
2021/08/27 09:36:07;;;;;;;4.23;0.97;;;;;;;17.44;100.00;-19619.28;5061893;28;20225;-67
2021/08/27 09:38:35;;;;;;;4.88;1.30;;;;;;;17.70;100.00;-19625.97;5061175;28;20115;-67
2021/08/27 09:41:04;;;;;;;4.27;1.10;;;;;;;19.66;100.00;-19676.13;5059879;28;20389;-69
2021/08/27 09:43:30;;;;;;;3.13;0.60;;;;;;;19.93;100.00;-19682.88;5061235;28;20023;-68
2021/08/27 09:45:57;;;;;;;3.40;0.80;;;;;;;20.28;100.00;-19691.97;5061425;28;20032;-68
2021/08/27 09:48:24;;;;;;;7.20;1.88;;;;;;;18.92;100.00;-19657.09;5051798;28;20040;-67
2021/08/27 09:50:50;;;;;;;3.95;1.20;;;;;;;17.81;100.00;-19628.69;5058722;28;20127;-67
2021/08/27 09:53:18;;;;;;;4.68;1.27;;;;;;;17.35;100.00;-19616.81;5062385;28;20044;-66
2021/08/27 09:55:58;;;;;;;3.20;1.10;;;;;;;17.85;100.00;-19629.75;5062463;28;20066;-67
2021/08/27 09:58:24;;;;;;;2.70;0.90;;;;;;;19.48;100.00;-19671.44;5061844;28;20037;-68
2021/08/27 10:01:00;;;;;;;5.38;1.52;;;;;;;20.89;100.00;-19707.59;5062144;28;20029;-69
2021/08/27 10:03:26;;;;;;;4.07;0.88;;;;;;;20.19;100.00;-19689.66;5062224;28;20107;-68
2021/08/27 10:05:54;;;;;;;3.33;1.35;;;;;;;19.77;100.00;-19678.97;5062429;28;20111;-67
2021/08/27 10:08:22;;;;;;;2.85;1.00;;;;;;;19.35;100.00;-19668.03;5061862;28;20270;-66
2021/08/27 10:11:18;;;;;;;3.42;0.98;;;;;;;18.84;100.00;-19655.03;5062221;28;20024;-67
2021/08/27 10:13:44;;;;;;;3.53;0.90;;;;;;;18.18;100.00;-19638.09;5060945;28;20036;-66
2021/08/27 10:16:10;;;;;;;2.67;0.85;;;;;;;18.12;100.00;-19636.78;5050459;28;20103;-66
2021/08/27 10:18:36;;;;;;;4.53;0.80;;;;;;;18.44;100.00;-19644.84;5062001;28;20389;-67
2021/08/27 10:21:05;;;;;;;1.70;0.70;;;;;;;19.14;100.00;-19662.84;5061944;28;20025;-67
2021/08/27 10:23:30;;;;;;;3.15;0.60;;;;;;;19.33;100.00;-19667.78;5062082;28;20469;-67
2021/08/27 10:25:56;;;;;;;4.00;1.10;;;;;;;19.15;100.00;-19662.97;5061864;28;20200;-67
2021/08/27 10:28:29;;;;;;;2.40;0.75;;;;;;;19.29;100.00;-19666.75;5061492;28;20268;-66
2021/08/27 10:30:58;;;;;;;1.73;0.70;;;;;;;20.71;100.00;-19702.91;5061748;28;20020;-67
2021/08/27 10:33:59;;;;;;;3.67;0.90;;;;;;;20.84;100.00;-19706.28;5061364;28;20218;-67
2021/08/27 10:36:48;;;;;;;3.72;0.60;;;;;;;20.90;100.00;-19707.72;4999054;28;20037;-67
2021/08/27 10:39:36;;;;;;;3.58;0.80;;;;;;;20.44;100.00;-19696.16;4998362;28;20041;-67
2021/08/27 10:42:02;;;;;;;2.05;0.70;;;;;;;20.80;100.00;-19705.25;4997597;28;20034;-67
2021/08/27 10:44:56;;;;;;;4.07;0.85;;;;;;;21.60;100.00;-19725.75;4997061;28;20145;-67
2021/08/27 10:47:22;;;;;;;3.13;0.85;;;;;;;22.14;100.00;-19739.50;4958055;28;20399;-67
2021/08/27 10:49:57;;;;;;;4.82;0.90;;;;;;;21.19;100.00;-19715.09;4956893;28;20042;-67
2021/08/27 10:52:37;;;;;;;3.33;0.80;;;;;;;21.01;100.00;-19710.69;4956043;28;20042;-67
2021/08/27 10:55:07;;;;;;;3.35;0.80;;;;;;;20.14;100.00;-19688.47;4959365;28;20723;-66
2021/08/27 10:57:56;;;;;;;2.42;1.00;;;;;;;19.61;100.00;-19674.81;4959000;28;20043;-66
2021/08/27 11:00:40;;;;;;;4.03;1.05;;;;;;;19.29;100.00;-19666.75;4959463;28;20284;-66
2021/08/27 11:03:08;;;;;;;5.03;1.02;;;;;;;18.50;100.00;-19646.41;4959197;28;20055;-66
2021/08/27 11:05:45;;;;;;;4.55;0.98;;;;;;;17.52;100.00;-19621.38;4943222;28;20062;-66
2021/08/27 11:08:16;;;;;;;2.53;1.00;;;;;;;16.70;100.00;-19600.22;4959177;28;20035;-66
2021/08/27 11:10:44;;;;;;;5.00;1.77;;;;;;;16.44;100.00;22071.00;4972279;28;20477;-65
2021/08/27 11:13:14;;;;;;;3.93;1.30;;;;;;;16.57;100.00;54264.72;4998230;28;20706;-66
2021/08/27 11:15:40;;;;;;;3.40;1.20;;;;;;;16.61;100.00;56937.72;4998081;28;20721;-66
2021/08/27 11:18:25;;;;;;;3.93;1.37;;;;;;;16.81;100.00;41636.06;4998235;28;20540;-66
2021/08/27 11:20:51;;;;;;;4.13;1.10;;;;;;;17.14;100.00;33554.91;4997953;28;20040;-65
2021/08/27 11:23:17;;;;;;;4.77;1.37;;;;;;;17.36;100.00;-17589.38;5014652;28;20317;-66
2021/08/27 11:26:01;;;;;;;3.17;0.97;;;;;;;17.70;100.00;-19625.81;5059477;28;20023;-66
2021/08/27 11:28:28;;;;;;;3.50;1.00;;;;;;;18.28;100.00;-19640.69;5060295;28;20121;-66